sensor_id;sensor_type;location;lat;lon;timestamp;temperature;humidity
58339;DHT22;68636;52.704;6.536;2023-07-29T00:00:35;17.70;99.90
58339;DHT22;68636;52.704;6.536;2023-07-29T00:03:00;17.60;99.90
58339;DHT22;68636;52.704;6.536;2023-07-29T00:05:26;17.60;99.90
58339;DHT22;68636;52.704;6.536;2023-07-29T00:07:52;17.60;99.90
58339;DHT22;68636;52.704;6.536;2023-07-29T00:10:18;17.60;99.90
58339;DHT22;68636;52.704;6.536;2023-07-29T00:12:43;17.60;99.90
58339;DHT22;68636;52.704;6.536;2023-07-29T00:15:09;17.60;99.90
58339;DHT22;68636;52.704;6.536;2023-07-29T00:17:35;17.60;99.90
58339;DHT22;68636;52.704;6.536;2023-07-29T00:20:01;17.60;99.90
58339;DHT22;68636;52.704;6.536;2023-07-29T00:22:26;17.50;99.90
58339;DHT22;68636;52.704;6.536;2023-07-29T00:24:53;17.50;99.90
58339;DHT22;68636;52.704;6.536;2023-07-29T00:27:23;17.50;99.90
58339;DHT22;68636;52.704;6.536;2023-07-29T00:29:48;17.40;99.90
58339;DHT22;68636;52.704;6.536;2023-07-29T00:32:14;17.40;99.90
58339;DHT22;68636;52.704;6.536;2023-07-29T00:34:40;17.40;99.90
58339;DHT22;68636;52.704;6.536;2023-07-29T00:37:05;17.40;99.90
58339;DHT22;68636;52.704;6.536;2023-07-29T00:39:32;17.40;99.90
58339;DHT22;68636;52.704;6.536;2023-07-29T00:41:58;17.40;99.90
58339;DHT22;68636;52.704;6.536;2023-07-29T00:44:24;17.40;99.90
58339;DHT22;68636;52.704;6.536;2023-07-29T00:46:53;17.40;99.90
58339;DHT22;68636;52.704;6.536;2023-07-29T00:49:20;17.30;99.90
58339;DHT22;68636;52.704;6.536;2023-07-29T00:51:46;17.30;99.90
58339;DHT22;68636;52.704;6.536;2023-07-29T00:54:12;17.30;99.90
58339;DHT22;68636;52.704;6.536;2023-07-29T00:56:38;17.30;99.90
58339;DHT22;68636;52.704;6.536;2023-07-29T00:59:04;17.30;99.90
58339;DHT22;68636;52.704;6.536;2023-07-29T01:01:30;17.30;99.90
58339;DHT22;68636;52.704;6.536;2023-07-29T01:03:57;17.30;99.90
58339;DHT22;68636;52.704;6.536;2023-07-29T01:06:53;17.30;99.90
58339;DHT22;68636;52.704;6.536;2023-07-29T01:15:16;17.40;99.90
58339;DHT22;68636;52.704;6.536;2023-07-29T01:17:55;17.40;99.90
58339;DHT22;68636;52.704;6.536;2023-07-29T01:20:25;17.40;99.90
58339;DHT22;68636;52.704;6.536;2023-07-29T01:22:51;17.40;99.90
58339;DHT22;68636;52.704;6.536;2023-07-29T01:25:17;17.30;99.90
58339;DHT22;68636;52.704;6.536;2023-07-29T01:27:45;17.30;99.90
58339;DHT22;68636;52.704;6.536;2023-07-29T01:30:11;17.20;99.90
58339;DHT22;68636;52.704;6.536;2023-07-29T01:32:51;17.20;99.90
58339;DHT22;68636;52.704;6.536;2023-07-29T01:35:33;17.20;99.90
58339;DHT22;68636;52.704;6.536;2023-07-29T01:38:09;17.10;99.90
58339;DHT22;68636;52.704;6.536;2023-07-29T01:40:37;17.10;99.90
58339;DHT22;68636;52.704;6.536;2023-07-29T01:43:03;17.10;99.90
58339;DHT22;68636;52.704;6.536;2023-07-29T01:45:29;17.00;99.90
58339;DHT22;68636;52.704;6.536;2023-07-29T01:47:57;17.00;99.90
58339;DHT22;68636;52.704;6.536;2023-07-29T01:50:23;17.00;99.90
58339;DHT22;68636;52.704;6.536;2023-07-29T01:52:48;16.90;99.90
58339;DHT22;68636;52.704;6.536;2023-07-29T01:55:14;16.90;99.90
58339;DHT22;68636;52.704;6.536;2023-07-29T01:57:40;16.90;99.90
58339;DHT22;68636;52.704;6.536;2023-07-29T02:00:06;16.80;99.90
58339;DHT22;68636;52.704;6.536;2023-07-29T02:02:32;16.80;99.90
58339;DHT22;68636;52.704;6.536;2023-07-29T02:04:58;16.80;99.90
58339;DHT22;68636;52.704;6.536;2023-07-29T02:07:24;16.80;99.90
58339;DHT22;68636;52.704;6.536;2023-07-29T02:09:51;16.80;99.90
58339;DHT22;68636;52.704;6.536;2023-07-29T02:12:17;16.80;99.90
58339;DHT22;68636;52.704;6.536;2023-07-29T02:14:43;16.90;99.90
58339;DHT22;68636;52.704;6.536;2023-07-29T02:17:09;16.90;99.90
58339;DHT22;68636;52.704;6.536;2023-07-29T02:19:34;17.00;99.90
58339;DHT22;68636;52.704;6.536;2023-07-29T02:22:00;17.00;99.90
58339;DHT22;68636;52.704;6.536;2023-07-29T02:24:26;17.00;99.90
58339;DHT22;68636;52.704;6.536;2023-07-29T02:26:51;17.00;99.90
58339;DHT22;68636;52.704;6.536;2023-07-29T02:29:17;17.00;99.90
58339;DHT22;68636;52.704;6.536;2023-07-29T02:31:43;17.10;99.90
58339;DHT22;68636;52.704;6.536;2023-07-29T02:34:09;17.00;99.90
58339;DHT22;68636;52.704;6.536;2023-07-29T02:36:35;17.00;99.90
58339;DHT22;68636;52.704;6.536;2023-07-29T02:39:01;17.00;99.90
58339;DHT22;68636;52.704;6.536;2023-07-29T02:41:26;17.10;99.90
58339;DHT22;68636;52.704;6.536;2023-07-29T02:43:52;17.00;99.90
58339;DHT22;68636;52.704;6.536;2023-07-29T02:46:18;17.00;99.90
58339;DHT22;68636;52.704;6.536;2023-07-29T02:48:44;16.90;99.90
58339;DHT22;68636;52.704;6.536;2023-07-29T02:51:10;16.90;99.90
58339;DHT22;68636;52.704;6.536;2023-07-29T02:53:36;16.90;99.90
58339;DHT22;68636;52.704;6.536;2023-07-29T02:56:03;16.80;99.90
58339;DHT22;68636;52.704;6.536;2023-07-29T02:58:29;16.80;99.90
58339;DHT22;68636;52.704;6.536;2023-07-29T03:01:01;16.70;99.90
58339;DHT22;68636;52.704;6.536;2023-07-29T03:03:27;16.70;99.90
58339;DHT22;68636;52.704;6.536;2023-07-29T03:06:01;16.70;99.90
58339;DHT22;68636;52.704;6.536;2023-07-29T03:08:27;16.70;99.90
58339;DHT22;68636;52.704;6.536;2023-07-29T03:10:54;16.70;99.90
58339;DHT22;68636;52.704;6.536;2023-07-29T03:13:19;16.70;99.90
58339;DHT22;68636;52.704;6.536;2023-07-29T03:15:45;16.70;99.90
58339;DHT22;68636;52.704;6.536;2023-07-29T03:18:11;16.70;99.90
58339;DHT22;68636;52.704;6.536;2023-07-29T03:20:36;16.60;99.90
58339;DHT22;68636;52.704;6.536;2023-07-29T03:23:02;16.50;99.90
58339;DHT22;68636;52.704;6.536;2023-07-29T03:25:28;16.50;99.90
58339;DHT22;68636;52.704;6.536;2023-07-29T03:27:54;16.50;99.90
58339;DHT22;68636;52.704;6.536;2023-07-29T03:30:21;16.40;99.90
58339;DHT22;68636;52.704;6.536;2023-07-29T03:32:47;16.40;99.90
58339;DHT22;68636;52.704;6.536;2023-07-29T03:35:13;16.40;99.90
58339;DHT22;68636;52.704;6.536;2023-07-29T03:37:39;16.30;99.90
58339;DHT22;68636;52.704;6.536;2023-07-29T03:40:06;16.30;99.90
58339;DHT22;68636;52.704;6.536;2023-07-29T03:42:32;16.30;99.90
58339;DHT22;68636;52.704;6.536;2023-07-29T03:44:57;16.30;99.90
58339;DHT22;68636;52.704;6.536;2023-07-29T03:47:23;16.20;99.90
58339;DHT22;68636;52.704;6.536;2023-07-29T03:49:49;16.20;99.90
58339;DHT22;68636;52.704;6.536;2023-07-29T03:52:15;16.20;99.90
58339;DHT22;68636;52.704;6.536;2023-07-29T03:54:40;16.20;99.90
58339;DHT22;68636;52.704;6.536;2023-07-29T03:57:06;16.20;99.90
58339;DHT22;68636;52.704;6.536;2023-07-29T03:59:32;16.20;99.90
58339;DHT22;68636;52.704;6.536;2023-07-29T04:01:58;16.20;99.90
58339;DHT22;68636;52.704;6.536;2023-07-29T04:04:24;16.20;99.90
58339;DHT22;68636;52.704;6.536;2023-07-29T04:06:50;16.20;99.90
58339;DHT22;68636;52.704;6.536;2023-07-29T04:09:15;16.20;99.90
58339;DHT22;68636;52.704;6.536;2023-07-29T04:11:41;16.30;99.90
58339;DHT22;68636;52.704;6.536;2023-07-29T04:14:07;16.30;99.90
58339;DHT22;68636;52.704;6.536;2023-07-29T04:16:33;16.30;99.90
58339;DHT22;68636;52.704;6.536;2023-07-29T04:18:58;16.30;99.90
58339;DHT22;68636;52.704;6.536;2023-07-29T04:21:24;16.30;99.90
58339;DHT22;68636;52.704;6.536;2023-07-29T04:23:50;16.40;99.90
58339;DHT22;68636;52.704;6.536;2023-07-29T04:26:15;16.40;99.90
58339;DHT22;68636;52.704;6.536;2023-07-29T04:28:42;16.40;99.90
58339;DHT22;68636;52.704;6.536;2023-07-29T04:31:08;16.40;99.90
58339;DHT22;68636;52.704;6.536;2023-07-29T04:33:34;16.50;99.90
58339;DHT22;68636;52.704;6.536;2023-07-29T04:35:59;16.50;99.90
58339;DHT22;68636;52.704;6.536;2023-07-29T04:38:30;16.50;99.90
58339;DHT22;68636;52.704;6.536;2023-07-29T04:40:58;16.60;99.90
58339;DHT22;68636;52.704;6.536;2023-07-29T04:43:32;16.60;99.90
58339;DHT22;68636;52.704;6.536;2023-07-29T04:45:58;16.60;99.90
58339;DHT22;68636;52.704;6.536;2023-07-29T04:48:24;16.70;99.90
58339;DHT22;68636;52.704;6.536;2023-07-29T04:50:50;16.70;99.90
58339;DHT22;68636;52.704;6.536;2023-07-29T04:53:16;16.70;99.90
58339;DHT22;68636;52.704;6.536;2023-07-29T04:55:42;16.70;99.90
58339;DHT22;68636;52.704;6.536;2023-07-29T04:58:08;16.70;99.90
58339;DHT22;68636;52.704;6.536;2023-07-29T05:00:34;16.80;99.90
58339;DHT22;68636;52.704;6.536;2023-07-29T05:03:00;16.80;99.90
58339;DHT22;68636;52.704;6.536;2023-07-29T05:05:26;16.80;99.90
58339;DHT22;68636;52.704;6.536;2023-07-29T05:07:52;16.90;99.90
58339;DHT22;68636;52.704;6.536;2023-07-29T05:10:18;16.90;99.90
58339;DHT22;68636;52.704;6.536;2023-07-29T05:12:44;17.00;99.90
58339;DHT22;68636;52.704;6.536;2023-07-29T05:15:10;17.00;99.90
58339;DHT22;68636;52.704;6.536;2023-07-29T05:17:36;17.00;99.90
58339;DHT22;68636;52.704;6.536;2023-07-29T05:20:01;17.00;99.90
58339;DHT22;68636;52.704;6.536;2023-07-29T05:22:27;17.10;99.90
58339;DHT22;68636;52.704;6.536;2023-07-29T05:24:53;17.10;99.90
58339;DHT22;68636;52.704;6.536;2023-07-29T05:27:19;17.10;99.90
58339;DHT22;68636;52.704;6.536;2023-07-29T05:29:45;17.20;99.90
58339;DHT22;68636;52.704;6.536;2023-07-29T05:32:10;17.20;99.90
58339;DHT22;68636;52.704;6.536;2023-07-29T05:34:37;17.30;99.90
58339;DHT22;68636;52.704;6.536;2023-07-29T05:37:03;17.30;99.90
58339;DHT22;68636;52.704;6.536;2023-07-29T05:39:30;17.30;99.90
58339;DHT22;68636;52.704;6.536;2023-07-29T05:41:57;17.30;99.90
58339;DHT22;68636;52.704;6.536;2023-07-29T05:44:23;17.30;99.90
58339;DHT22;68636;52.704;6.536;2023-07-29T05:46:49;17.30;99.90
58339;DHT22;68636;52.704;6.536;2023-07-29T05:49:14;17.30;99.90
58339;DHT22;68636;52.704;6.536;2023-07-29T05:51:40;17.40;99.90
58339;DHT22;68636;52.704;6.536;2023-07-29T05:54:06;17.40;99.90
58339;DHT22;68636;52.704;6.536;2023-07-29T05:56:31;17.50;99.90
58339;DHT22;68636;52.704;6.536;2023-07-29T05:58:57;17.50;99.90
58339;DHT22;68636;52.704;6.536;2023-07-29T06:01:23;17.50;99.90
58339;DHT22;68636;52.704;6.536;2023-07-29T06:03:50;17.60;99.90
58339;DHT22;68636;52.704;6.536;2023-07-29T06:06:16;17.60;99.90
58339;DHT22;68636;52.704;6.536;2023-07-29T06:08:41;17.60;99.90
58339;DHT22;68636;52.704;6.536;2023-07-29T06:11:07;17.60;99.90
58339;DHT22;68636;52.704;6.536;2023-07-29T06:13:33;17.60;99.90
58339;DHT22;68636;52.704;6.536;2023-07-29T06:15:58;17.70;99.90
58339;DHT22;68636;52.704;6.536;2023-07-29T06:18:24;17.70;99.90
58339;DHT22;68636;52.704;6.536;2023-07-29T06:20:51;17.90;99.90
58339;DHT22;68636;52.704;6.536;2023-07-29T06:23:17;18.00;99.90
58339;DHT22;68636;52.704;6.536;2023-07-29T06:25:43;18.10;99.90
58339;DHT22;68636;52.704;6.536;2023-07-29T06:28:09;18.10;99.90
58339;DHT22;68636;52.704;6.536;2023-07-29T06:30:35;18.20;99.90
58339;DHT22;68636;52.704;6.536;2023-07-29T06:33:00;18.20;99.90
58339;DHT22;68636;52.704;6.536;2023-07-29T06:35:28;18.30;99.90
58339;DHT22;68636;52.704;6.536;2023-07-29T06:37:54;18.30;99.90
58339;DHT22;68636;52.704;6.536;2023-07-29T06:40:20;18.40;99.90
58339;DHT22;68636;52.704;6.536;2023-07-29T06:42:45;18.50;99.90
58339;DHT22;68636;52.704;6.536;2023-07-29T06:45:11;18.60;99.90
58339;DHT22;68636;52.704;6.536;2023-07-29T06:47:37;18.60;99.90
58339;DHT22;68636;52.704;6.536;2023-07-29T06:50:03;18.60;99.90
58339;DHT22;68636;52.704;6.536;2023-07-29T06:52:29;18.70;99.90
58339;DHT22;68636;52.704;6.536;2023-07-29T06:54:55;18.80;99.90
58339;DHT22;68636;52.704;6.536;2023-07-29T06:57:21;18.80;99.90
58339;DHT22;68636;52.704;6.536;2023-07-29T06:59:47;18.80;99.90
58339;DHT22;68636;52.704;6.536;2023-07-29T07:02:12;18.80;99.90
58339;DHT22;68636;52.704;6.536;2023-07-29T07:04:38;18.90;99.90
58339;DHT22;68636;52.704;6.536;2023-07-29T07:07:04;18.90;99.90
58339;DHT22;68636;52.704;6.536;2023-07-29T07:09:30;19.00;99.90
58339;DHT22;68636;52.704;6.536;2023-07-29T07:11:56;19.10;99.90
58339;DHT22;68636;52.704;6.536;2023-07-29T07:14:22;19.10;99.90
58339;DHT22;68636;52.704;6.536;2023-07-29T07:16:47;19.20;99.90
58339;DHT22;68636;52.704;6.536;2023-07-29T07:19:13;19.30;99.90
58339;DHT22;68636;52.704;6.536;2023-07-29T07:21:39;19.40;99.90
58339;DHT22;68636;52.704;6.536;2023-07-29T07:24:05;19.50;99.90
58339;DHT22;68636;52.704;6.536;2023-07-29T07:26:31;19.70;99.90
58339;DHT22;68636;52.704;6.536;2023-07-29T07:28:56;19.90;99.90
58339;DHT22;68636;52.704;6.536;2023-07-29T07:31:22;20.00;99.90
58339;DHT22;68636;52.704;6.536;2023-07-29T07:33:48;20.10;99.90
58339;DHT22;68636;52.704;6.536;2023-07-29T07:36:14;20.30;99.90
58339;DHT22;68636;52.704;6.536;2023-07-29T07:38:41;20.30;99.90
58339;DHT22;68636;52.704;6.536;2023-07-29T07:41:07;20.30;99.90
58339;DHT22;68636;52.704;6.536;2023-07-29T07:43:33;20.40;99.90
58339;DHT22;68636;52.704;6.536;2023-07-29T07:46:01;20.50;99.90
58339;DHT22;68636;52.704;6.536;2023-07-29T07:48:27;20.50;99.90
58339;DHT22;68636;52.704;6.536;2023-07-29T07:50:53;20.50;99.90
58339;DHT22;68636;52.704;6.536;2023-07-29T07:53:19;20.50;99.90
58339;DHT22;68636;52.704;6.536;2023-07-29T07:55:45;20.30;99.90
58339;DHT22;68636;52.704;6.536;2023-07-29T07:58:11;20.30;99.90
58339;DHT22;68636;52.704;6.536;2023-07-29T08:00:37;20.30;99.90
58339;DHT22;68636;52.704;6.536;2023-07-29T08:03:03;20.40;99.90
58339;DHT22;68636;52.704;6.536;2023-07-29T08:05:29;20.50;99.90
58339;DHT22;68636;52.704;6.536;2023-07-29T08:07:55;20.60;99.90
58339;DHT22;68636;52.704;6.536;2023-07-29T08:10:21;20.70;99.90
58339;DHT22;68636;52.704;6.536;2023-07-29T08:12:47;20.80;99.90
58339;DHT22;68636;52.704;6.536;2023-07-29T08:15:12;20.90;99.90
58339;DHT22;68636;52.704;6.536;2023-07-29T08:17:38;21.10;99.90
58339;DHT22;68636;52.704;6.536;2023-07-29T08:20:04;21.10;99.90
58339;DHT22;68636;52.704;6.536;2023-07-29T08:22:30;21.30;99.90
58339;DHT22;68636;52.704;6.536;2023-07-29T08:24:56;21.50;99.90
58339;DHT22;68636;52.704;6.536;2023-07-29T08:27:21;21.60;99.90
58339;DHT22;68636;52.704;6.536;2023-07-29T08:29:47;21.50;99.90
58339;DHT22;68636;52.704;6.536;2023-07-29T08:32:13;21.70;99.90
58339;DHT22;68636;52.704;6.536;2023-07-29T08:34:38;21.80;99.90
58339;DHT22;68636;52.704;6.536;2023-07-29T08:37:04;22.00;99.90
58339;DHT22;68636;52.704;6.536;2023-07-29T08:39:30;22.00;99.90
58339;DHT22;68636;52.704;6.536;2023-07-29T08:41:57;22.00;99.90
58339;DHT22;68636;52.704;6.536;2023-07-29T08:44:28;21.90;99.90
58339;DHT22;68636;52.704;6.536;2023-07-29T08:46:56;21.90;99.90
58339;DHT22;68636;52.704;6.536;2023-07-29T08:49:23;21.90;99.90
58339;DHT22;68636;52.704;6.536;2023-07-29T08:51:50;21.90;99.90
58339;DHT22;68636;52.704;6.536;2023-07-29T08:54:18;21.80;99.90
58339;DHT22;68636;52.704;6.536;2023-07-29T08:56:45;21.80;99.90
58339;DHT22;68636;52.704;6.536;2023-07-29T08:59:11;21.80;99.90
58339;DHT22;68636;52.704;6.536;2023-07-29T09:01:38;21.80;99.90
58339;DHT22;68636;52.704;6.536;2023-07-29T09:04:04;21.90;99.90
58339;DHT22;68636;52.704;6.536;2023-07-29T09:06:31;21.90;99.90
58339;DHT22;68636;52.704;6.536;2023-07-29T09:08:58;22.20;99.90
58339;DHT22;68636;52.704;6.536;2023-07-29T09:11:24;22.30;99.90
58339;DHT22;68636;52.704;6.536;2023-07-29T09:13:50;22.50;99.90
58339;DHT22;68636;52.704;6.536;2023-07-29T09:16:16;22.50;99.90
58339;DHT22;68636;52.704;6.536;2023-07-29T09:18:42;22.50;99.90
58339;DHT22;68636;52.704;6.536;2023-07-29T09:21:08;22.40;99.90
58339;DHT22;68636;52.704;6.536;2023-07-29T09:23:44;22.40;99.90
58339;DHT22;68636;52.704;6.536;2023-07-29T09:26:10;22.50;99.90
58339;DHT22;68636;52.704;6.536;2023-07-29T09:28:38;22.50;99.90
58339;DHT22;68636;52.704;6.536;2023-07-29T09:31:04;22.60;99.90
58339;DHT22;68636;52.704;6.536;2023-07-29T09:33:34;22.60;99.90
58339;DHT22;68636;52.704;6.536;2023-07-29T09:36:09;22.50;99.90
58339;DHT22;68636;52.704;6.536;2023-07-29T09:38:35;22.70;99.90
58339;DHT22;68636;52.704;6.536;2023-07-29T09:41:01;22.90;99.90
58339;DHT22;68636;52.704;6.536;2023-07-29T09:43:33;23.20;99.90
58339;DHT22;68636;52.704;6.536;2023-07-29T09:46:05;23.30;99.90
58339;DHT22;68636;52.704;6.536;2023-07-29T09:48:37;23.40;99.90
58339;DHT22;68636;52.704;6.536;2023-07-29T09:51:14;23.30;99.90
58339;DHT22;68636;52.704;6.536;2023-07-29T09:53:45;23.20;99.90
58339;DHT22;68636;52.704;6.536;2023-07-29T09:56:12;23.20;99.90
58339;DHT22;68636;52.704;6.536;2023-07-29T09:58:38;23.20;99.90
58339;DHT22;68636;52.704;6.536;2023-07-29T10:01:08;23.30;99.90
58339;DHT22;68636;52.704;6.536;2023-07-29T10:03:35;23.60;99.90
58339;DHT22;68636;52.704;6.536;2023-07-29T10:06:01;23.60;99.90
58339;DHT22;68636;52.704;6.536;2023-07-29T10:08:30;23.60;99.90
58339;DHT22;68636;52.704;6.536;2023-07-29T10:11:00;23.40;99.90
58339;DHT22;68636;52.704;6.536;2023-07-29T10:13:26;23.40;99.90
58339;DHT22;68636;52.704;6.536;2023-07-29T10:15:55;23.50;99.90
58339;DHT22;68636;52.704;6.536;2023-07-29T10:18:23;23.80;99.90
58339;DHT22;68636;52.704;6.536;2023-07-29T10:20:52;23.90;99.90
58339;DHT22;68636;52.704;6.536;2023-07-29T10:23:22;23.80;99.90
58339;DHT22;68636;52.704;6.536;2023-07-29T10:26:01;23.40;99.90
58339;DHT22;68636;52.704;6.536;2023-07-29T10:28:30;23.40;99.90
58339;DHT22;68636;52.704;6.536;2023-07-29T10:30:57;23.30;99.90
58339;DHT22;68636;52.704;6.536;2023-07-29T10:33:22;23.00;99.90
58339;DHT22;68636;52.704;6.536;2023-07-29T10:35:49;22.70;99.90
58339;DHT22;68636;52.704;6.536;2023-07-29T10:38:15;22.50;99.90
58339;DHT22;68636;52.704;6.536;2023-07-29T10:40:49;22.20;99.90
58339;DHT22;68636;52.704;6.536;2023-07-29T10:43:27;22.20;99.90
58339;DHT22;68636;52.704;6.536;2023-07-29T10:45:56;22.30;99.90
58339;DHT22;68636;52.704;6.536;2023-07-29T10:54:02;22.80;99.90
58339;DHT22;68636;52.704;6.536;2023-07-29T10:56:33;23.00;99.90
58339;DHT22;68636;52.704;6.536;2023-07-29T10:59:30;23.10;99.90
58339;DHT22;68636;52.704;6.536;2023-07-29T11:01:58;23.30;99.90
58339;DHT22;68636;52.704;6.536;2023-07-29T11:04:24;23.40;99.90
58339;DHT22;68636;52.704;6.536;2023-07-29T11:17:42;24.20;99.90
58339;DHT22;68636;52.704;6.536;2023-07-29T11:20:08;24.30;99.90
58339;DHT22;68636;52.704;6.536;2023-07-29T11:22:36;24.40;99.90
58339;DHT22;68636;52.704;6.536;2023-07-29T11:25:02;24.50;99.90
58339;DHT22;68636;52.704;6.536;2023-07-29T11:27:28;24.60;99.90
58339;DHT22;68636;52.704;6.536;2023-07-29T11:30:01;24.60;99.90
58339;DHT22;68636;52.704;6.536;2023-07-29T11:32:28;24.60;99.90
58339;DHT22;68636;52.704;6.536;2023-07-29T11:34:54;24.60;99.90
58339;DHT22;68636;52.704;6.536;2023-07-29T11:37:19;24.60;99.90
58339;DHT22;68636;52.704;6.536;2023-07-29T11:39:47;24.50;99.90
58339;DHT22;68636;52.704;6.536;2023-07-29T11:42:14;24.40;99.90
58339;DHT22;68636;52.704;6.536;2023-07-29T11:44:40;24.30;99.90
58339;DHT22;68636;52.704;6.536;2023-07-29T11:47:12;24.20;99.90
58339;DHT22;68636;52.704;6.536;2023-07-29T11:49:41;24.00;99.90
58339;DHT22;68636;52.704;6.536;2023-07-29T11:52:10;23.90;99.90
58339;DHT22;68636;52.704;6.536;2023-07-29T11:54:37;23.80;99.90
58339;DHT22;68636;52.704;6.536;2023-07-29T11:57:04;23.90;99.90
58339;DHT22;68636;52.704;6.536;2023-07-29T11:59:32;24.00;99.90
58339;DHT22;68636;52.704;6.536;2023-07-29T12:02:00;24.10;99.90
58339;DHT22;68636;52.704;6.536;2023-07-29T12:04:26;24.30;99.90
58339;DHT22;68636;52.704;6.536;2023-07-29T12:06:52;24.30;99.90
58339;DHT22;68636;52.704;6.536;2023-07-29T12:09:18;24.10;99.90
58339;DHT22;68636;52.704;6.536;2023-07-29T12:11:44;24.10;99.90
58339;DHT22;68636;52.704;6.536;2023-07-29T12:14:10;24.10;99.90
58339;DHT22;68636;52.704;6.536;2023-07-29T12:16:43;24.10;99.90
58339;DHT22;68636;52.704;6.536;2023-07-29T12:19:08;24.10;99.90
58339;DHT22;68636;52.704;6.536;2023-07-29T12:21:37;24.40;99.90
58339;DHT22;68636;52.704;6.536;2023-07-29T12:24:03;24.50;99.90
58339;DHT22;68636;52.704;6.536;2023-07-29T12:26:32;24.50;99.90
58339;DHT22;68636;52.704;6.536;2023-07-29T12:28:58;24.70;99.90
58339;DHT22;68636;52.704;6.536;2023-07-29T12:31:33;24.70;99.90
58339;DHT22;68636;52.704;6.536;2023-07-29T12:33:59;24.30;99.90
58339;DHT22;68636;52.704;6.536;2023-07-29T12:36:49;24.30;99.90
58339;DHT22;68636;52.704;6.536;2023-07-29T12:39:31;24.00;99.90
58339;DHT22;68636;52.704;6.536;2023-07-29T12:41:59;23.90;99.90
58339;DHT22;68636;52.704;6.536;2023-07-29T12:44:27;23.60;99.90
58339;DHT22;68636;52.704;6.536;2023-07-29T12:46:52;23.40;99.90
58339;DHT22;68636;52.704;6.536;2023-07-29T12:49:18;23.50;99.90
58339;DHT22;68636;52.704;6.536;2023-07-29T12:51:45;23.50;99.90
58339;DHT22;68636;52.704;6.536;2023-07-29T12:54:11;23.60;99.90
58339;DHT22;68636;52.704;6.536;2023-07-29T12:56:36;23.80;99.90
58339;DHT22;68636;52.704;6.536;2023-07-29T12:59:02;23.90;99.90
58339;DHT22;68636;52.704;6.536;2023-07-29T13:01:29;24.10;99.90
58339;DHT22;68636;52.704;6.536;2023-07-29T13:03:55;24.20;99.90
58339;DHT22;68636;52.704;6.536;2023-07-29T13:06:22;24.20;99.90
58339;DHT22;68636;52.704;6.536;2023-07-29T13:08:48;24.40;99.90
58339;DHT22;68636;52.704;6.536;2023-07-29T13:11:17;24.40;99.90
58339;DHT22;68636;52.704;6.536;2023-07-29T13:13:43;24.60;99.90
58339;DHT22;68636;52.704;6.536;2023-07-29T13:16:11;24.90;99.90
58339;DHT22;68636;52.704;6.536;2023-07-29T13:18:38;24.90;99.90
58339;DHT22;68636;52.704;6.536;2023-07-29T13:21:03;24.90;99.90
58339;DHT22;68636;52.704;6.536;2023-07-29T13:23:29;25.10;99.90
58339;DHT22;68636;52.704;6.536;2023-07-29T13:25:58;25.30;99.90
58339;DHT22;68636;52.704;6.536;2023-07-29T13:28:24;25.40;99.90
58339;DHT22;68636;52.704;6.536;2023-07-29T13:30:50;25.50;99.90
58339;DHT22;68636;52.704;6.536;2023-07-29T13:33:15;25.40;99.90
58339;DHT22;68636;52.704;6.536;2023-07-29T13:35:42;25.40;99.90
58339;DHT22;68636;52.704;6.536;2023-07-29T13:38:07;25.30;99.90
58339;DHT22;68636;52.704;6.536;2023-07-29T13:40:33;25.20;99.90
58339;DHT22;68636;52.704;6.536;2023-07-29T13:42:59;25.20;99.90
58339;DHT22;68636;52.704;6.536;2023-07-29T13:45:25;24.90;99.90
58339;DHT22;68636;52.704;6.536;2023-07-29T13:47:51;24.60;99.90
58339;DHT22;68636;52.704;6.536;2023-07-29T13:50:19;24.20;99.90
58339;DHT22;68636;52.704;6.536;2023-07-29T13:52:45;23.60;99.90
58339;DHT22;68636;52.704;6.536;2023-07-29T13:55:11;23.20;99.90
58339;DHT22;68636;52.704;6.536;2023-07-29T13:57:38;23.00;99.90
58339;DHT22;68636;52.704;6.536;2023-07-29T14:00:05;22.70;99.90
58339;DHT22;68636;52.704;6.536;2023-07-29T14:02:31;22.50;99.90
58339;DHT22;68636;52.704;6.536;2023-07-29T14:04:57;22.40;99.90
58339;DHT22;68636;52.704;6.536;2023-07-29T14:07:23;22.10;99.90
58339;DHT22;68636;52.704;6.536;2023-07-29T14:09:49;22.10;99.90
58339;DHT22;68636;52.704;6.536;2023-07-29T14:12:14;22.20;99.90
58339;DHT22;68636;52.704;6.536;2023-07-29T14:14:44;22.60;99.90
58339;DHT22;68636;52.704;6.536;2023-07-29T14:17:09;22.90;99.90
58339;DHT22;68636;52.704;6.536;2023-07-29T14:19:36;23.10;99.90
58339;DHT22;68636;52.704;6.536;2023-07-29T14:22:02;23.00;99.90
58339;DHT22;68636;52.704;6.536;2023-07-29T14:24:28;22.90;99.90
58339;DHT22;68636;52.704;6.536;2023-07-29T14:26:54;22.70;99.90
58339;DHT22;68636;52.704;6.536;2023-07-29T14:29:19;22.20;99.90
58339;DHT22;68636;52.704;6.536;2023-07-29T14:31:45;21.90;99.90
58339;DHT22;68636;52.704;6.536;2023-07-29T14:34:11;21.70;99.90
58339;DHT22;68636;52.704;6.536;2023-07-29T14:36:37;21.40;99.90
58339;DHT22;68636;52.704;6.536;2023-07-29T14:39:03;21.20;99.90
58339;DHT22;68636;52.704;6.536;2023-07-29T14:41:29;21.20;99.90
58339;DHT22;68636;52.704;6.536;2023-07-29T14:43:55;20.30;99.90
58339;DHT22;68636;52.704;6.536;2023-07-29T14:46:20;19.70;99.90
58339;DHT22;68636;52.704;6.536;2023-07-29T14:48:46;19.30;99.90
58339;DHT22;68636;52.704;6.536;2023-07-29T14:51:13;19.10;99.90
58339;DHT22;68636;52.704;6.536;2023-07-29T14:53:38;19.10;99.90
58339;DHT22;68636;52.704;6.536;2023-07-29T14:56:04;19.30;99.90
58339;DHT22;68636;52.704;6.536;2023-07-29T14:58:30;19.60;99.90
58339;DHT22;68636;52.704;6.536;2023-07-29T15:00:56;19.60;99.90
58339;DHT22;68636;52.704;6.536;2023-07-29T15:03:23;19.70;99.90
58339;DHT22;68636;52.704;6.536;2023-07-29T15:05:49;19.70;99.90
58339;DHT22;68636;52.704;6.536;2023-07-29T15:08:15;19.70;99.90
58339;DHT22;68636;52.704;6.536;2023-07-29T15:10:40;19.70;99.90
58339;DHT22;68636;52.704;6.536;2023-07-29T15:13:06;19.80;99.90
58339;DHT22;68636;52.704;6.536;2023-07-29T15:15:32;20.00;99.90
58339;DHT22;68636;52.704;6.536;2023-07-29T15:17:57;20.10;99.90
58339;DHT22;68636;52.704;6.536;2023-07-29T15:20:23;20.20;99.90
58339;DHT22;68636;52.704;6.536;2023-07-29T15:22:49;20.40;99.90
58339;DHT22;68636;52.704;6.536;2023-07-29T15:25:15;20.40;99.90
58339;DHT22;68636;52.704;6.536;2023-07-29T15:27:40;20.50;99.90
58339;DHT22;68636;52.704;6.536;2023-07-29T15:30:07;20.50;99.90
58339;DHT22;68636;52.704;6.536;2023-07-29T15:32:32;20.60;99.90
58339;DHT22;68636;52.704;6.536;2023-07-29T15:34:58;20.60;99.90
58339;DHT22;68636;52.704;6.536;2023-07-29T15:37:27;20.60;99.90
58339;DHT22;68636;52.704;6.536;2023-07-29T15:39:53;20.80;99.90
58339;DHT22;68636;52.704;6.536;2023-07-29T15:42:19;21.00;99.90
58339;DHT22;68636;52.704;6.536;2023-07-29T15:44:45;21.10;99.90
58339;DHT22;68636;52.704;6.536;2023-07-29T15:47:10;21.20;99.90
58339;DHT22;68636;52.704;6.536;2023-07-29T15:49:38;21.30;99.90